Sulphur Springs, TX

3:13 PM CDT on October 20, 2017 (GMT -0500)
Sulphur Springs Municipal

Weather History for KSLR - February, 2014

Change the Weather History Date:

Thursday, February 20, 2014

  Actual Average (KGVT) Record (KGVT)
Temperature  
Mean Temperature 60 °F -  
Max Temperature 73 °F 58 °F 78 °F (2005)
Min Temperature 45 °F 43 °F 30 °F (2006)
Degree Days  
Heating Degree Days 6    
Growing Degree Days 10 (Base 50)    
Moisture  
Dew Point 47 °F    
Average Humidity 57    
Maximum Humidity 79    
Minimum Humidity 23    
Precipitation  
Precipitation 0.00 in - - ()
Sea Level Pressure  
Sea Level Pressure 29.84 in    
Wind  
Wind Speed 18 mph (West)    
Max Wind Speed 28 mph    
Max Gust Speed 41 mph    
Visibility 10 miles    
Events      
Averages and records for this station are not official NWS values.
T = Trace of Precipitation, MM = Missing Value Source: NWS Daily Summary

Daily Weather History Graph

Daily Weather History Graph

Search for Another Location

Airport or City:

Trip Planner

Search our weather history database for the weather conditions in past years. The results will help you decide how hot, cold, wet, or windy it might be!

Date:

Astronomy

Feb. 20, 2014 Rise Set
Actual Time 7:00 AM CST 6:11 PM CST
Civil Twilight 6:35 AM CST 6:37 PM CST
Nautical Twilight 6:06 AM CST 7:06 PM CST
Astronomical Twilight 5:38 AM CST 7:34 PM CST
Moon 11:47 PM CST 10:02 AM CST
Length of Visible Light 12h 01m
Length of Day
11h 11m
Waning Gibbous, 70% of the Moon is Illuminated
Feb 20
Waning Gibbous
Feb 22
Last Quarter
Mar 1
New
Mar 8
First Quarter
Mar 16
Full

Hourly Weather History & Observations

Time (CST) Temp. Windchill Dew Point Humidity Pressure Visibility Wind Dir Wind Speed Gust Speed Precip Events Conditions
12:15 AM 68.2 °F - 59.7 °F 74% 29.68 in 10.0 mi South 15.0 mph 29.9 mph N/A   Scattered Clouds
12:35 AM 67.3 °F - 59.4 °F 76% 29.68 in 10.0 mi South 15.0 mph 23.0 mph N/A   Clear
12:55 AM 67.1 °F - 59.0 °F 75% 29.69 in 10.0 mi South 18.4 mph 27.6 mph N/A   Scattered Clouds
1:15 AM 67.3 °F - 58.5 °F 73% 29.69 in 10.0 mi South 20.7 mph 27.6 mph N/A   Mostly Cloudy
1:35 AM 67.5 °F - 58.3 °F 72% 29.70 in 10.0 mi SSW 20.7 mph 29.9 mph N/A   Mostly Cloudy
1:55 AM 67.3 °F - 58.3 °F 73% 29.70 in 10.0 mi SSW 17.3 mph 27.6 mph N/A   Mostly Cloudy
2:15 AM 67.3 °F - 58.1 °F 72% 29.69 in 10.0 mi SSW 19.6 mph 26.5 mph N/A   Mostly Cloudy
2:35 AM 67.1 °F - 58.1 °F 73% 29.68 in 10.0 mi South 20.7 mph 32.2 mph N/A   Mostly Cloudy
2:55 AM 67.1 °F - 58.1 °F 73% 29.68 in 10.0 mi SSW 21.9 mph 29.9 mph N/A   Mostly Cloudy
3:15 AM 66.6 °F - 57.6 °F 73% 29.67 in 10.0 mi South 21.9 mph 29.9 mph N/A   Scattered Clouds
3:35 AM 66.2 °F - 57.6 °F 74% 29.66 in 10.0 mi South 16.1 mph 26.5 mph N/A   Clear
3:55 AM 65.3 °F - 57.6 °F 76% 29.68 in 10.0 mi SSW 15.0 mph 21.9 mph N/A   Clear
4:15 AM 64.9 °F - 57.6 °F 77% 29.67 in 10.0 mi SSW 18.4 mph 23.0 mph N/A   Clear
4:35 AM 64.6 °F - 57.6 °F 78% 29.68 in 10.0 mi SSW 15.0 mph 19.6 mph N/A   Clear
4:55 AM 64.0 °F - 57.6 °F 79% 29.68 in 10.0 mi South 13.8 mph 18.4 mph N/A   Scattered Clouds
5:15 AM 64.6 °F - 57.7 °F 78% 29.68 in 10.0 mi SSW 16.1 mph - N/A   Mostly Cloudy
5:35 AM 65.3 °F - 57.7 °F 76% 29.68 in 10.0 mi South 20.7 mph 26.5 mph N/A   Overcast
5:55 AM 66.0 °F - 58.1 °F 76% 29.68 in 10.0 mi SSW 21.9 mph 28.8 mph N/A   Overcast
6:15 AM 66.6 °F - 58.8 °F 76% 29.68 in 10.0 mi SSW 23.0 mph 29.9 mph N/A   Overcast
6:35 AM 67.1 °F - 59.4 °F 76% 29.69 in 10.0 mi SSW 21.9 mph 35.7 mph N/A   Overcast
6:55 AM 67.3 °F - 59.7 °F 77% 29.69 in 10.0 mi SSW 24.2 mph 34.5 mph N/A   Overcast
7:15 AM 67.6 °F - 59.9 °F 76% 29.69 in 10.0 mi SSW 20.7 mph 29.9 mph N/A   Overcast
7:35 AM 68.4 °F - 60.1 °F 75% 29.71 in 10.0 mi SSW 26.5 mph 33.4 mph N/A   Overcast
7:55 AM 68.9 °F - 60.3 °F 74% 29.73 in 10.0 mi SW 21.9 mph 31.1 mph N/A   Overcast
8:15 AM 68.9 °F - 60.4 °F 74% 29.73 in 10.0 mi SSW 23.0 mph 32.2 mph N/A   Overcast
8:35 AM 69.3 °F - 60.8 °F 74% 29.74 in 10.0 mi SSW 23.0 mph 28.8 mph N/A   Overcast
8:55 AM 69.8 °F - 60.8 °F 73% 29.74 in 10.0 mi SW 21.9 mph 28.8 mph N/A   Overcast
9:15 AM 70.2 °F - 60.8 °F 72% 29.74 in 10.0 mi SW 21.9 mph 35.7 mph N/A   Mostly Cloudy
9:35 AM 70.3 °F - 60.8 °F 72% 29.76 in 10.0 mi SW 25.3 mph 41.4 mph N/A   Mostly Cloudy
9:55 AM 70.9 °F - 61.0 °F 71% 29.76 in 10.0 mi SW 27.6 mph 32.2 mph N/A   Scattered Clouds
10:15 AM 71.4 °F - 60.8 °F 69% 29.76 in 10.0 mi SW 20.7 mph 28.8 mph N/A   Scattered Clouds
10:35 AM 73.2 °F - 60.8 °F 65% 29.77 in 10.0 mi SW 20.7 mph 29.9 mph N/A   Clear
10:55 AM 72.0 °F - 60.1 °F 66% 29.79 in 10.0 mi SW 18.4 mph 33.4 mph N/A   Clear
11:15 AM 72.0 °F - 59.7 °F 65% 29.79 in 10.0 mi WSW 16.1 mph 27.6 mph N/A   Clear
11:35 AM 72.5 °F - 58.8 °F 62% 29.80 in 10.0 mi WSW 19.6 mph 27.6 mph N/A   Scattered Clouds
11:55 AM 73.0 °F - 53.6 °F 50% 29.81 in 10.0 mi West 23.0 mph 31.1 mph N/A   Scattered Clouds
12:15 PM 72.9 °F - 55.9 °F 55% 29.81 in 10.0 mi West 17.3 mph 23.0 mph N/A   Scattered Clouds
12:35 PM 68.9 °F - 38.1 °F 32% 29.82 in 7.0 mi WNW 15.0 mph 24.2 mph N/A   Mostly Cloudy
12:55 PM 71.6 °F - 34.2 °F 25% 29.82 in 7.0 mi WNW 17.3 mph 24.2 mph N/A   Overcast
1:15 PM 72.5 °F - 34.0 °F 24% 29.82 in 10.0 mi NW 19.6 mph 27.6 mph N/A   Overcast
1:35 PM 72.5 °F - 32.2 °F 23% 29.82 in 10.0 mi WNW 20.7 mph 28.8 mph N/A   Overcast
1:55 PM 71.6 °F - 35.1 °F 26% 29.82 in 7.0 mi NW 23.0 mph 27.6 mph N/A   Overcast
2:15 PM 70.0 °F - 36.7 °F 30% 29.83 in 10.0 mi NW 19.6 mph 27.6 mph N/A   Overcast
2:35 PM 69.4 °F - 35.4 °F 29% 29.84 in 7.0 mi NNW 19.6 mph 23.0 mph N/A   Overcast
2:55 PM 68.4 °F - 35.1 °F 29% 29.85 in 10.0 mi NW 18.4 mph 29.9 mph N/A   Overcast
3:15 PM 66.6 °F - 34.9 °F 31% 29.86 in 10.0 mi NW 24.2 mph 29.9 mph N/A   Mostly Cloudy
3:35 PM 66.4 °F - 36.1 °F 33% 29.88 in 10.0 mi NW 18.4 mph 26.5 mph N/A   Mostly Cloudy
3:55 PM 64.2 °F - 32.4 °F 30% 29.89 in 10.0 mi NW 24.2 mph 32.2 mph N/A   Scattered Clouds
4:15 PM 63.7 °F - 34.2 °F 33% 29.91 in 10.0 mi NW 20.7 mph 26.5 mph N/A   Clear
4:35 PM 62.6 °F - 33.4 °F 34% 29.92 in 10.0 mi NNW 19.6 mph 29.9 mph N/A   Clear
4:55 PM 61.7 °F - 32.4 °F 33% 29.94 in 10.0 mi NNW 23.0 mph 28.8 mph N/A   Clear
5:15 PM 60.8 °F - 32.5 °F 35% 29.95 in 10.0 mi NW 16.1 mph - N/A   Clear
5:35 PM 59.9 °F - 32.9 °F 36% 29.96 in 10.0 mi NW 16.1 mph - N/A   Clear
5:55 PM 59.0 °F - 33.6 °F 38% 29.98 in 10.0 mi NW 13.8 mph 20.7 mph N/A   Clear
6:15 PM 57.9 °F - 32.2 °F 38% 29.99 in 10.0 mi NW 17.3 mph 24.2 mph N/A   Clear
6:35 PM 56.5 °F - 32.2 °F 40% 30.01 in 10.0 mi NW 15.0 mph - N/A   Clear
6:55 PM 55.4 °F - 32.5 °F 42% 30.03 in 10.0 mi NNW 13.8 mph - N/A   Clear
7:15 PM 53.8 °F - 34.7 °F 48% 30.04 in 10.0 mi NNW 9.2 mph - N/A   Clear
7:35 PM 52.0 °F - 36.9 °F 56% 30.05 in 10.0 mi NW 6.9 mph - N/A   Clear
7:55 PM 51.4 °F - 35.8 °F 55% 30.06 in 10.0 mi NW 8.1 mph - N/A   Clear
8:15 PM 51.6 °F - 34.7 °F 52% 30.07 in 10.0 mi NW 6.9 mph - N/A   Clear
8:35 PM 50.5 °F - 35.1 °F 55% 30.08 in 10.0 mi WNW 5.8 mph - N/A   Clear
8:55 PM 50.9 °F - 34.0 °F 52% 30.09 in 10.0 mi NW 8.1 mph - N/A   Clear
9:15 PM 50.2 °F - 33.8 °F 53% 30.09 in 10.0 mi NW 6.9 mph - N/A   Clear
9:35 PM 49.5 °F - 34.0 °F 55% 30.10 in 10.0 mi NW 6.9 mph - N/A   Clear
9:55 PM 48.7 °F - 32.9 °F 54% 30.11 in 10.0 mi NW 4.6 mph - N/A   Clear
10:15 PM 48.4 °F - 32.5 °F 54% 30.11 in 10.0 mi WNW 5.8 mph - N/A   Clear
10:35 PM 48.2 °F - 32.0 °F 54% 30.11 in 10.0 mi WNW 5.8 mph - N/A   Clear
10:55 PM 47.8 °F - 31.6 °F 53% 30.11 in 10.0 mi WNW 4.6 mph - N/A   Clear
11:15 PM 47.5 °F - 31.8 °F 55% 30.12 in 10.0 mi WNW 5.8 mph - N/A   Clear
11:35 PM 46.9 °F - 31.3 °F 55% 30.13 in 10.0 mi NW 5.8 mph - N/A   Clear
11:55 PM 45.9 °F 41.7 °F 32.0 °F 58% 30.13 in 10.0 mi NW 8.1 mph - N/A   Clear